createdAt,value
2023-02-19T00:00:55.604Z,8.52
2023-02-19T00:02:59.155Z,2.35
2023-02-19T00:05:03.978Z,2.92
2023-02-19T00:07:07.414Z,3.45
2023-02-19T00:09:12.594Z,3.15
2023-02-19T00:11:18.220Z,3.25
2023-02-19T00:13:21.878Z,3.50
2023-02-19T00:15:25.627Z,3.10
2023-02-19T00:17:28.923Z,2.58
2023-02-19T00:19:32.836Z,3.58
2023-02-19T00:21:37.505Z,3.10
2023-02-19T00:23:41.304Z,2.70
2023-02-19T00:25:46.440Z,2.78
2023-02-19T00:27:49.775Z,4.35
2023-02-19T00:29:54.152Z,2.75
2023-02-19T00:31:57.683Z,4.32
2023-02-19T00:34:02.767Z,3.60
2023-02-19T00:36:07.490Z,3.47
2023-02-19T00:38:12.376Z,3.90
2023-02-19T00:40:15.959Z,3.83
2023-02-19T00:42:19.343Z,2.90
2023-02-19T00:44:22.973Z,8.77
2023-02-19T00:46:27.946Z,4.55
2023-02-19T00:48:31.431Z,3.72
2023-02-19T00:50:34.786Z,2.47
2023-02-19T00:52:38.649Z,3.70
2023-02-19T00:54:43.450Z,4.57
2023-02-19T00:56:47.068Z,2.97
2023-02-19T00:58:51.005Z,3.67
2023-02-19T01:00:54.306Z,2.60
2023-02-19T01:02:57.577Z,3.08
2023-02-19T01:05:01.028Z,4.10
2023-02-19T01:07:04.389Z,2.80
2023-02-19T01:09:08.463Z,1.90
2023-02-19T01:11:14.274Z,2.80
2023-02-19T01:13:18.402Z,4.25
2023-02-19T01:15:21.829Z,2.65
2023-02-19T01:17:25.373Z,2.55
2023-02-19T01:19:28.678Z,2.63
2023-02-19T01:21:32.808Z,2.70
2023-02-19T01:23:37.070Z,4.15
2023-02-19T01:25:40.966Z,2.67
2023-02-19T01:27:45.811Z,1.92
2023-02-19T01:29:49.189Z,5.00
2023-02-19T01:31:52.774Z,2.38
2023-02-19T01:33:57.750Z,5.80
2023-02-19T01:36:01.916Z,2.05
2023-02-19T01:38:05.337Z,4.82
2023-02-19T01:40:09.482Z,4.00
2023-02-19T01:42:16.984Z,2.10
2023-02-19T01:44:57.492Z,3.38
2023-02-19T01:47:09.501Z,2.58
2023-02-19T01:49:17.176Z,2.83
2023-02-19T01:51:25.693Z,4.30
2023-02-19T01:53:34.945Z,3.85
2023-02-19T01:55:39.160Z,3.75
2023-02-19T01:57:47.240Z,2.08
2023-02-19T01:59:54.980Z,5.15
2023-02-19T02:01:58.488Z,16.40
2023-02-19T02:04:03.734Z,11.88
2023-02-19T02:06:13.091Z,15.20
2023-02-19T02:08:35.427Z,12.15
2023-02-19T02:10:39.237Z,16.08
2023-02-19T02:12:42.698Z,5.85
2023-02-19T02:14:52.194Z,5.80
2023-02-19T02:17:06.950Z,8.15
2023-02-19T02:19:30.112Z,5.38
2023-02-19T02:22:06.342Z,2.45
2023-02-19T02:24:21.403Z,6.25
2023-02-19T02:26:37.392Z,3.15
2023-02-19T02:29:28.587Z,2.40
2023-02-19T02:31:37.039Z,3.70
2023-02-19T02:33:48.506Z,5.28
2023-02-19T02:35:56.377Z,8.95
2023-02-19T02:38:04.079Z,4.63
2023-02-19T02:40:09.822Z,3.83
2023-02-19T02:42:31.128Z,4.63
2023-02-19T02:44:36.471Z,5.05
2023-02-19T02:46:43.885Z,5.80
2023-02-19T02:48:54.171Z,5.13
2023-02-19T02:51:02.132Z,5.93
2023-02-19T02:53:27.744Z,4.30
2023-02-19T02:55:37.177Z,6.68
2023-02-19T02:57:40.779Z,6.70
2023-02-19T02:59:45.223Z,5.30
2023-02-19T03:02:11.254Z,4.75
2023-02-19T03:04:21.027Z,2.95
2023-02-19T03:06:26.169Z,3.13
2023-02-19T03:08:32.859Z,3.63
2023-02-19T03:10:41.175Z,2.08
2023-02-19T03:13:06.780Z,5.00
2023-02-19T03:15:30.474Z,2.78
2023-02-19T03:17:58.723Z,2.85
2023-02-19T03:20:04.655Z,3.50
2023-02-19T03:22:13.336Z,5.78
2023-02-19T03:24:36.008Z,3.00
2023-02-19T03:26:42.298Z,3.83
2023-02-19T03:29:05.861Z,3.45
2023-02-19T03:31:12.308Z,2.40
2023-02-19T03:33:21.656Z,3.08
2023-02-19T03:35:27.987Z,2.50
2023-02-19T03:37:36.408Z,2.15
2023-02-19T03:39:44.562Z,1.95
2023-02-19T03:41:55.056Z,2.80
2023-02-19T03:44:09.067Z,1.90
2023-02-19T03:46:17.715Z,2.55
2023-02-19T03:48:30.473Z,2.35
2023-02-19T03:50:42.935Z,2.35
2023-02-19T03:52:57.797Z,3.63
2023-02-19T03:55:07.664Z,5.40
2023-02-19T03:57:19.255Z,1.50
2023-02-19T03:59:28.725Z,1.80
2023-02-19T04:01:39.260Z,4.25
2023-02-19T04:03:48.402Z,3.40
2023-02-19T04:05:55.349Z,2.00
2023-02-19T04:08:02.098Z,1.95
2023-02-19T04:10:07.366Z,3.05
2023-02-19T04:12:12.846Z,6.40
2023-02-19T04:14:19.988Z,3.13
2023-02-19T04:16:28.692Z,2.33
2023-02-19T04:18:37.287Z,1.65
2023-02-19T04:20:45.833Z,2.25
2023-02-19T04:22:49.809Z,2.35
2023-02-19T04:24:56.510Z,3.25
2023-02-19T04:27:00.144Z,2.78
2023-02-19T04:29:04.477Z,2.08
2023-02-19T04:31:07.941Z,2.40
2023-02-19T04:33:11.609Z,2.05
2023-02-19T04:35:15.069Z,2.35
2023-02-19T04:37:19.784Z,1.92
2023-02-19T04:39:23.358Z,1.75
2023-02-19T04:41:26.794Z,2.42
2023-02-19T04:43:30.164Z,4.68
2023-02-19T04:45:33.904Z,6.18
2023-02-19T04:47:37.202Z,1.67
2023-02-19T04:49:40.447Z,3.75
2023-02-19T04:51:43.894Z,3.55
2023-02-19T04:53:48.869Z,3.45
2023-02-19T04:55:53.564Z,2.20
2023-02-19T04:57:56.896Z,3.30
2023-02-19T05:00:00.204Z,3.28
2023-02-19T05:02:03.877Z,2.28
2023-02-19T05:04:07.328Z,2.25
2023-02-19T05:06:13.751Z,3.80
2023-02-19T05:08:17.541Z,3.08
2023-02-19T05:10:22.375Z,3.70
2023-02-19T05:12:25.585Z,2.15
2023-02-19T05:14:28.977Z,2.20
2023-02-19T05:16:33.346Z,5.15
2023-02-19T05:18:36.663Z,3.53
2023-02-19T05:20:40.050Z,1.65
2023-02-19T05:22:43.545Z,2.70
2023-02-19T05:24:47.273Z,2.00
2023-02-19T05:26:52.204Z,5.57
2023-02-19T05:28:56.142Z,4.05
2023-02-19T05:30:59.555Z,3.20
2023-02-19T05:33:03.273Z,1.95
2023-02-19T05:35:07.164Z,2.33
2023-02-19T05:37:10.632Z,2.05
2023-02-19T05:39:14.048Z,2.50
2023-02-19T05:41:19.080Z,1.92
2023-02-19T05:43:23.907Z,2.65
2023-02-19T05:45:27.525Z,2.50
2023-02-19T05:47:31.000Z,1.95
2023-02-19T05:49:34.322Z,1.88
2023-02-19T05:51:37.824Z,6.68
2023-02-19T05:53:41.882Z,3.15
2023-02-19T05:55:45.293Z,2.25
2023-02-19T05:57:49.704Z,3.45
2023-02-19T05:59:54.258Z,2.30
2023-02-19T06:01:58.387Z,3.50
2023-02-19T06:04:01.880Z,1.60
2023-02-19T06:06:05.523Z,4.72
2023-02-19T06:08:08.911Z,3.70
2023-02-19T06:10:14.185Z,2.60
2023-02-19T06:12:17.380Z,3.35
2023-02-19T06:14:21.086Z,3.10
2023-02-19T06:16:25.977Z,3.08
2023-02-19T06:18:29.259Z,3.75
2023-02-19T06:20:33.136Z,2.10
2023-02-19T06:22:36.496Z,4.65
2023-02-19T06:24:40.502Z,3.53
2023-02-19T06:26:44.075Z,2.90
2023-02-19T06:28:48.807Z,3.55
2023-02-19T06:30:52.143Z,3.42
2023-02-19T06:32:57.275Z,4.57
2023-02-19T06:35:00.942Z,8.73
2023-02-19T06:37:04.568Z,4.43
2023-02-19T06:39:08.104Z,4.32
2023-02-19T06:41:14.490Z,4.10
2023-02-19T06:43:17.847Z,5.57
2023-02-19T06:45:21.633Z,6.03
2023-02-19T06:47:25.560Z,6.03
2023-02-19T06:49:30.515Z,7.03
2023-02-19T06:51:34.350Z,10.45
2023-02-19T06:53:37.631Z,5.97
2023-02-19T06:55:41.569Z,4.22
2023-02-19T06:57:44.880Z,8.98
2023-02-19T06:59:48.236Z,7.05
2023-02-19T07:01:51.660Z,5.50
2023-02-19T07:03:56.037Z,5.03
2023-02-19T07:06:02.374Z,5.50
2023-02-19T07:08:06.301Z,4.15
2023-02-19T07:10:10.044Z,4.93
2023-02-19T07:12:13.561Z,5.45
2023-02-19T07:14:18.412Z,5.95
2023-02-19T07:16:21.803Z,5.65
2023-02-19T07:18:25.146Z,3.72
2023-02-19T07:20:28.601Z,4.10
2023-02-19T07:22:33.366Z,6.05
2023-02-19T07:24:36.651Z,4.63
2023-02-19T07:26:39.963Z,5.50
2023-02-19T07:28:43.782Z,4.47
2023-02-19T07:30:47.205Z,7.00
2023-02-19T07:32:50.528Z,5.72
2023-02-19T07:34:54.066Z,5.35
2023-02-19T07:36:57.383Z,3.92
2023-02-19T07:39:02.248Z,4.18
2023-02-19T07:41:07.244Z,4.53
2023-02-19T07:43:10.539Z,6.00
2023-02-19T07:45:14.734Z,8.10
2023-02-19T07:47:18.041Z,9.35
2023-02-19T07:49:21.476Z,6.05
2023-02-19T07:51:24.847Z,7.80
2023-02-19T07:53:29.182Z,10.15
2023-02-19T07:55:35.099Z,14.55
2023-02-19T07:57:38.672Z,17.92
2023-02-19T07:59:42.316Z,10.95
2023-02-19T08:02:02.760Z,7.78
2023-02-19T08:04:06.459Z,4.70
2023-02-19T08:06:11.358Z,6.88
2023-02-19T08:08:16.115Z,8.80
2023-02-19T08:10:37.055Z,9.73
2023-02-19T08:12:59.094Z,12.13
2023-02-19T08:15:02.613Z,5.10
2023-02-19T08:17:06.209Z,6.07
2023-02-19T08:19:09.731Z,4.78
2023-02-19T08:21:13.532Z,4.20
2023-02-19T08:23:17.057Z,4.30
2023-02-19T08:25:20.520Z,3.90
2023-02-19T08:27:23.915Z,3.45
2023-02-19T08:29:28.852Z,4.68
2023-02-19T08:31:33.516Z,5.32
2023-02-19T08:33:37.173Z,3.70
2023-02-19T08:35:42.092Z,3.92
2023-02-19T08:37:45.448Z,6.32
2023-02-19T08:39:48.831Z,7.20
2023-02-19T08:41:52.511Z,5.70
2023-02-19T08:43:55.968Z,4.97
2023-02-19T08:46:00.898Z,3.67
2023-02-19T08:48:05.164Z,9.20
2023-02-19T08:50:09.376Z,5.27
2023-02-19T08:52:12.755Z,17.30
2023-02-19T08:54:16.298Z,19.27
2023-02-19T08:56:19.655Z,18.57
2023-02-19T08:58:24.486Z,20.50
2023-02-19T09:00:28.674Z,16.90
2023-02-19T09:02:33.459Z,21.20
2023-02-19T09:04:37.875Z,21.20
2023-02-19T09:06:41.261Z,15.13
2023-02-19T09:08:44.656Z,18.50
2023-02-19T09:10:58.237Z,13.57
2023-02-19T09:13:02.763Z,14.87
2023-02-19T09:15:06.661Z,11.37
2023-02-19T09:17:10.414Z,11.93
2023-02-19T09:19:15.364Z,7.00
2023-02-19T09:21:18.684Z,4.30
2023-02-19T09:23:22.173Z,2.60
2023-02-19T09:25:25.719Z,3.73
2023-02-19T09:27:31.810Z,2.53
2023-02-19T09:29:35.173Z,2.00
2023-02-19T09:31:38.984Z,1.43
2023-02-19T09:33:45.036Z,0.90
2023-02-19T09:35:49.809Z,0.90
2023-02-19T09:37:53.106Z,1.03
2023-02-19T09:39:56.469Z,1.10
2023-02-19T09:42:02.360Z,1.10
2023-02-19T09:44:08.544Z,2.00
2023-02-19T09:46:24.279Z,1.83
2023-02-19T09:48:27.833Z,2.37
2023-02-19T09:50:36.230Z,3.60
2023-02-19T09:52:44.432Z,4.50
2023-02-19T09:54:49.262Z,3.37
2023-02-19T09:56:54.290Z,3.60
2023-02-19T09:59:00.761Z,2.67
2023-02-19T10:01:07.928Z,5.10
2023-02-19T10:03:25.329Z,3.27
2023-02-19T10:05:29.275Z,3.70
2023-02-19T10:07:39.721Z,3.07
2023-02-19T10:09:47.312Z,2.50
2023-02-19T10:11:51.295Z,2.27
2023-02-19T10:14:03.217Z,2.37
2023-02-19T10:16:11.585Z,2.00
2023-02-19T10:18:19.205Z,3.60
2023-02-19T10:20:26.789Z,2.10
2023-02-19T10:22:30.933Z,4.33
2023-02-19T10:24:35.485Z,2.17
2023-02-19T10:26:41.338Z,2.10
2023-02-19T10:28:44.820Z,3.53
2023-02-19T10:30:54.424Z,2.67
2023-02-19T10:33:04.498Z,2.80
2023-02-19T10:35:13.672Z,2.27
2023-02-19T10:37:19.538Z,2.33
2023-02-19T10:39:39.452Z,4.20
2023-02-19T10:41:44.491Z,2.80
2023-02-19T10:43:53.368Z,1.73
2023-02-19T10:45:56.793Z,2.60
2023-02-19T10:48:00.757Z,1.53
2023-02-19T10:50:05.022Z,1.40
2023-02-19T10:52:17.977Z,4.50
2023-02-19T10:54:26.820Z,1.30
2023-02-19T10:56:31.517Z,1.13
2023-02-19T10:58:37.902Z,1.73
2023-02-19T11:00:41.660Z,0.77
2023-02-19T11:02:46.127Z,0.90
2023-02-19T11:05:16.358Z,0.70
2023-02-19T11:07:20.589Z,0.70
2023-02-19T11:09:30.349Z,1.77
2023-02-19T11:11:36.640Z,0.73
2023-02-19T11:13:43.766Z,0.90
2023-02-19T11:15:54.250Z,1.47
2023-02-19T11:18:01.123Z,0.60
2023-02-19T11:20:11.560Z,0.90
2023-02-19T11:22:28.619Z,0.90
2023-02-19T11:24:37.184Z,1.73
2023-02-19T11:26:40.617Z,0.60
2023-02-19T11:28:57.849Z,0.60
2023-02-19T11:31:24.920Z,0.80
2023-02-19T11:33:28.950Z,0.73
2023-02-19T11:35:32.881Z,0.70
2023-02-19T11:37:36.692Z,0.93
2023-02-19T11:39:42.402Z,1.00
2023-02-19T11:42:15.530Z,0.80
2023-02-19T11:44:30.327Z,0.90
2023-02-19T11:46:39.681Z,0.73
2023-02-19T11:49:00.456Z,0.90
2023-02-19T11:51:12.385Z,0.90
2023-02-19T11:53:26.477Z,0.80
2023-02-19T11:55:36.141Z,1.10
2023-02-19T11:57:45.756Z,0.70
2023-02-19T11:59:59.331Z,2.30
2023-02-19T12:02:21.843Z,0.80
2023-02-19T12:05:07.715Z,0.70
2023-02-19T12:07:16.894Z,0.90
2023-02-19T12:09:39.104Z,0.70
2023-02-19T12:11:59.844Z,0.70
2023-02-19T12:14:10.619Z,0.77
2023-02-19T12:16:31.639Z,1.37
2023-02-19T12:19:16.728Z,0.80
2023-02-19T12:21:33.008Z,0.60
2023-02-19T12:23:53.626Z,0.70
2023-02-19T12:26:04.342Z,1.20
2023-02-19T12:28:32.870Z,1.13
2023-02-19T12:30:53.608Z,0.80
2023-02-19T12:33:13.113Z,0.70
2023-02-19T12:35:33.933Z,1.00
2023-02-19T12:37:48.801Z,0.73
2023-02-19T12:40:01.513Z,0.70
2023-02-19T12:42:12.644Z,2.30
2023-02-19T12:44:20.868Z,1.80
2023-02-19T12:46:30.955Z,2.00
2023-02-19T12:48:43.337Z,0.70
2023-02-19T12:50:50.222Z,0.90
2023-02-19T12:52:59.723Z,1.13
2023-02-19T12:55:15.310Z,1.93
2023-02-19T12:57:23.006Z,0.70
2023-02-19T12:59:30.667Z,0.70
2023-02-19T13:01:41.786Z,2.43
2023-02-19T13:03:53.840Z,2.97
2023-02-19T13:06:03.583Z,1.10
2023-02-19T13:08:14.015Z,0.93
2023-02-19T13:10:26.363Z,0.77
2023-02-19T13:12:32.529Z,0.60
2023-02-19T13:14:39.033Z,1.40
2023-02-19T13:16:47.109Z,0.70
2023-02-19T13:18:53.117Z,0.80
2023-02-19T13:20:57.036Z,1.20
2023-02-19T13:23:25.461Z,0.80
2023-02-19T13:25:41.631Z,0.80
2023-02-19T13:28:13.367Z,0.90
2023-02-19T13:30:26.905Z,1.33
2023-02-19T13:32:45.983Z,1.37
2023-02-19T13:35:12.701Z,0.80
2023-02-19T13:37:17.170Z,0.80
2023-02-19T13:39:22.769Z,0.60
2023-02-19T13:41:31.473Z,0.60
2023-02-19T13:43:38.943Z,0.70
2023-02-19T13:45:44.339Z,0.80
2023-02-19T13:47:49.207Z,0.70
2023-02-19T13:49:52.607Z,0.83
2023-02-19T13:51:58.560Z,1.50
2023-02-19T13:54:13.108Z,0.93
2023-02-19T13:56:39.244Z,0.97
2023-02-19T13:59:01.703Z,0.70
2023-02-19T14:01:06.312Z,0.70
2023-02-19T14:03:29.253Z,1.10
2023-02-19T14:06:00.589Z,0.70
2023-02-19T14:08:05.996Z,0.90
2023-02-19T14:10:13.556Z,0.90
2023-02-19T14:12:21.522Z,0.70
2023-02-19T14:14:35.148Z,1.00
2023-02-19T14:16:57.722Z,1.00
2023-02-19T14:19:01.078Z,0.80
2023-02-19T14:21:17.969Z,2.40
2023-02-19T14:23:25.967Z,0.90
2023-02-19T14:25:34.799Z,1.00
2023-02-19T14:29:46.922Z,0.70
2023-02-19T14:31:50.474Z,0.70
2023-02-19T14:33:56.471Z,1.10
2023-02-19T14:36:06.897Z,0.80
2023-02-19T14:38:19.240Z,0.70
2023-02-19T14:40:27.545Z,0.70
2023-02-19T14:42:33.609Z,1.10
2023-02-19T14:44:46.793Z,0.80
2023-02-19T14:46:58.522Z,0.70
2023-02-19T14:49:08.589Z,0.80
2023-02-19T14:51:16.548Z,0.70
2023-02-19T14:53:24.036Z,0.60
2023-02-19T14:55:32.650Z,0.70
2023-02-19T14:57:41.992Z,0.60
2023-02-19T14:59:54.885Z,6.23
2023-02-19T15:02:02.372Z,0.80
2023-02-19T15:04:06.319Z,0.60
2023-02-19T15:06:16.523Z,1.90
2023-02-19T15:08:24.853Z,0.60
2023-02-19T15:10:30.718Z,0.60
2023-02-19T15:12:40.799Z,0.80
2023-02-19T15:14:45.247Z,1.10
2023-02-19T15:16:49.377Z,0.60
2023-02-19T15:18:56.797Z,0.70
2023-02-19T15:21:03.143Z,1.20
2023-02-19T15:23:08.703Z,3.80
2023-02-19T15:25:18.816Z,1.10
2023-02-19T15:27:25.471Z,0.80
2023-02-19T15:29:30.188Z,0.70
2023-02-19T15:31:33.645Z,0.70
2023-02-19T15:33:37.078Z,0.80
2023-02-19T15:35:42.008Z,0.60
2023-02-19T15:37:45.642Z,0.70
2023-02-19T15:39:50.584Z,0.60
2023-02-19T15:41:59.999Z,0.70
2023-02-19T15:44:16.634Z,1.00
2023-02-19T15:46:22.743Z,0.60
2023-02-19T15:48:31.391Z,0.90
2023-02-19T15:50:37.494Z,0.83
2023-02-19T15:52:48.730Z,0.70
2023-02-19T15:54:56.816Z,1.60
2023-02-19T15:57:06.618Z,0.70
2023-02-19T15:59:18.920Z,0.70
2023-02-19T16:01:25.821Z,0.70
2023-02-19T16:03:31.027Z,0.90
2023-02-19T16:05:39.997Z,0.80
2023-02-19T16:07:45.015Z,0.60
2023-02-19T16:09:48.349Z,0.60
2023-02-19T16:11:53.377Z,0.90
2023-02-19T16:14:18.509Z,3.53
2023-02-19T16:16:26.247Z,0.80
2023-02-19T16:18:29.688Z,2.33
2023-02-19T16:20:35.678Z,3.20
2023-02-19T16:22:44.612Z,1.27
2023-02-19T16:24:50.763Z,0.80
2023-02-19T16:26:54.465Z,1.00
2023-02-19T16:28:58.121Z,1.03
2023-02-19T16:31:04.185Z,0.90
2023-02-19T16:33:34.833Z,0.70
2023-02-19T16:35:40.259Z,0.60
2023-02-19T16:38:00.498Z,0.90
2023-02-19T16:41:05.570Z,0.83
2023-02-19T16:43:32.858Z,1.03
2023-02-19T16:45:36.293Z,0.60
2023-02-19T16:47:45.345Z,2.50
2023-02-19T16:49:48.672Z,0.60
2023-02-19T16:51:53.967Z,0.73
2023-02-19T16:53:59.103Z,0.80
2023-02-19T16:56:02.517Z,0.60
2023-02-19T16:58:05.745Z,0.80
2023-02-19T17:00:09.900Z,0.60
2023-02-19T17:02:19.230Z,0.70
2023-02-19T17:04:22.964Z,0.83
2023-02-19T17:06:26.276Z,0.90
2023-02-19T17:08:35.359Z,0.83
2023-02-19T17:10:40.314Z,0.73
2023-02-19T17:12:43.796Z,1.33
2023-02-19T17:14:47.277Z,1.37
2023-02-19T17:16:50.589Z,0.63
2023-02-19T17:18:54.287Z,0.70
2023-02-19T17:21:03.573Z,0.70
2023-02-19T17:23:06.829Z,1.07
2023-02-19T17:25:10.366Z,0.83
2023-02-19T17:27:16.335Z,1.20
2023-02-19T17:29:20.263Z,0.80
2023-02-19T17:31:23.738Z,2.00
2023-02-19T17:33:27.129Z,0.60
2023-02-19T17:35:30.638Z,2.43
2023-02-19T17:37:34.105Z,0.80
2023-02-19T17:39:37.542Z,0.70
2023-02-19T17:41:41.058Z,0.70
2023-02-19T17:43:47.360Z,0.80
2023-02-19T17:45:50.889Z,1.03
2023-02-19T17:47:54.537Z,0.67
2023-02-19T17:49:57.829Z,0.93
2023-02-19T17:52:01.173Z,0.60
2023-02-19T17:54:07.455Z,0.70
2023-02-19T17:56:17.769Z,0.70
2023-02-19T17:58:21.208Z,0.73
2023-02-19T18:00:28.865Z,0.60
2023-02-19T18:02:32.247Z,1.27
2023-02-19T18:04:37.219Z,0.70
2023-02-19T18:06:40.878Z,0.70
2023-02-19T18:08:49.709Z,0.70
2023-02-19T18:10:53.602Z,0.60
2023-02-19T18:12:57.201Z,0.90
2023-02-19T18:15:00.671Z,0.60
2023-02-19T18:17:05.888Z,0.70
2023-02-19T18:19:09.638Z,2.20
2023-02-19T18:21:14.486Z,0.70
2023-02-19T18:23:17.966Z,0.70
2023-02-19T18:25:22.290Z,0.80
2023-02-19T18:27:26.077Z,3.60
2023-02-19T18:29:31.143Z,0.93
2023-02-19T18:31:37.353Z,1.97
2023-02-19T18:33:42.433Z,4.93
2023-02-19T18:35:47.535Z,1.00
2023-02-19T18:37:55.980Z,1.00
2023-02-19T18:40:00.426Z,0.90
2023-02-19T18:42:03.774Z,1.67
2023-02-19T18:44:07.905Z,0.67
2023-02-19T18:46:12.112Z,0.80
2023-02-19T18:48:15.402Z,1.40
2023-02-19T18:50:21.443Z,0.87
2023-02-19T18:52:29.659Z,0.80
2023-02-19T18:54:33.933Z,0.70
2023-02-19T18:56:47.020Z,1.00
2023-02-19T18:58:50.568Z,0.70
2023-02-19T19:00:54.302Z,0.80
2023-02-19T19:02:59.507Z,0.60
2023-02-19T19:05:03.041Z,0.87
2023-02-19T19:07:09.469Z,0.60
2023-02-19T19:09:12.803Z,0.67
2023-02-19T19:11:16.041Z,0.60
2023-02-19T19:13:19.322Z,0.90
2023-02-19T19:15:23.862Z,1.10
2023-02-19T19:17:27.246Z,0.70
2023-02-19T19:19:30.487Z,0.70
2023-02-19T19:21:34.237Z,0.60
2023-02-19T19:23:42.233Z,0.60
2023-02-19T19:25:45.874Z,1.00
2023-02-19T19:27:50.708Z,0.87
2023-02-19T19:29:54.136Z,1.47
2023-02-19T19:31:57.580Z,0.63
2023-02-19T19:34:00.873Z,0.70
2023-02-19T19:36:04.476Z,0.90
2023-02-19T19:38:07.922Z,0.90
2023-02-19T19:40:13.858Z,1.30
2023-02-19T19:42:17.972Z,0.80
2023-02-19T19:44:21.252Z,1.13
2023-02-19T19:46:24.789Z,0.70
2023-02-19T19:48:28.756Z,0.70
2023-02-19T19:50:32.388Z,1.10
2023-02-19T19:52:35.816Z,2.45
2023-02-19T19:54:39.238Z,1.58
2023-02-19T19:56:45.041Z,2.75
2023-02-19T19:58:49.507Z,4.13
2023-02-19T20:00:52.944Z,2.40
2023-02-19T20:02:56.411Z,0.73
2023-02-19T20:04:59.856Z,1.65
2023-02-19T20:07:03.687Z,2.45
2023-02-19T20:09:07.390Z,2.40
2023-02-19T20:11:11.020Z,0.95
2023-02-19T20:13:19.158Z,1.65
2023-02-19T20:15:23.720Z,1.30
2023-02-19T20:17:29.270Z,1.25
2023-02-19T20:19:32.678Z,1.20
2023-02-19T20:21:36.137Z,2.15
2023-02-19T20:23:43.553Z,1.60
2023-02-19T20:25:46.816Z,2.35
2023-02-19T20:27:50.610Z,2.28
2023-02-19T20:29:55.678Z,1.83
2023-02-19T20:32:00.551Z,1.50
2023-02-19T20:34:03.990Z,1.30
2023-02-19T20:36:08.387Z,1.10
2023-02-19T20:38:15.766Z,2.67
2023-02-19T20:40:20.082Z,19.45
2023-02-19T20:42:23.678Z,10.55
2023-02-19T20:44:27.868Z,8.20
2023-02-19T20:46:32.875Z,7.60
2023-02-19T20:48:36.357Z,14.13
2023-02-19T20:50:39.791Z,18.33
2023-02-19T20:52:43.233Z,19.58
2023-02-19T20:54:46.632Z,13.73
2023-02-19T20:56:52.469Z,2.88
2023-02-19T20:58:55.779Z,6.07
2023-02-19T21:00:59.121Z,4.60
2023-02-19T21:03:04.190Z,2.35
2023-02-19T21:05:08.756Z,3.33
2023-02-19T21:07:12.402Z,5.25
2023-02-19T21:09:15.848Z,4.10
2023-02-19T21:11:19.208Z,6.50
2023-02-19T21:13:22.735Z,14.30
2023-02-19T21:15:26.256Z,8.98
2023-02-19T21:17:29.524Z,11.20
2023-02-19T21:19:34.344Z,18.83
2023-02-19T21:21:40.260Z,22.98
2023-02-19T21:23:43.689Z,22.00
2023-02-19T21:25:47.082Z,36.72
2023-02-19T21:27:50.477Z,11.32
2023-02-19T21:29:53.993Z,29.25
2023-02-19T21:31:58.412Z,21.58
2023-02-19T21:34:02.011Z,34.55
2023-02-19T21:36:08.401Z,11.77
2023-02-19T21:38:11.786Z,9.82
2023-02-19T21:40:16.143Z,7.18
2023-02-19T21:42:19.468Z,3.67
2023-02-19T21:44:22.977Z,2.55
2023-02-19T21:46:27.018Z,3.58
2023-02-19T21:48:30.481Z,8.60
2023-02-19T21:50:33.826Z,6.45
2023-02-19T21:52:38.522Z,4.78
2023-02-19T21:54:41.809Z,5.90
2023-02-19T21:56:45.777Z,2.35
2023-02-19T21:58:48.981Z,1.08
2023-02-19T22:00:54.005Z,1.35
2023-02-19T22:02:57.522Z,0.80
2023-02-19T22:05:02.558Z,1.00
2023-02-19T22:07:05.977Z,5.57
2023-02-19T22:09:11.363Z,7.97
2023-02-19T22:11:14.846Z,12.50
2023-02-19T22:13:18.205Z,6.63
2023-02-19T22:15:21.495Z,6.13
2023-02-19T22:17:24.925Z,7.88
2023-02-19T22:19:28.241Z,2.00
2023-02-19T22:21:33.650Z,4.00
2023-02-19T22:23:36.987Z,5.93
2023-02-19T22:25:42.624Z,3.63
2023-02-19T22:27:46.078Z,6.47
2023-02-19T22:29:49.439Z,3.10
2023-02-19T22:31:53.357Z,0.80
2023-02-19T22:33:58.105Z,7.28
2023-02-19T22:36:01.664Z,7.70
2023-02-19T22:38:05.377Z,9.50
2023-02-19T22:40:09.789Z,13.27
2023-02-19T22:42:14.406Z,8.48
2023-02-19T22:44:18.132Z,1.50
2023-02-19T22:46:23.810Z,3.08
2023-02-19T22:48:30.143Z,1.00
2023-02-19T22:50:34.037Z,0.60
2023-02-19T22:52:37.412Z,0.80
2023-02-19T22:54:40.893Z,0.93
2023-02-19T22:56:44.823Z,0.60
2023-02-19T22:58:49.764Z,0.60
2023-02-19T23:00:53.265Z,0.80
2023-02-19T23:02:56.549Z,1.65
2023-02-19T23:04:59.809Z,15.63
2023-02-19T23:07:03.133Z,2.15
2023-02-19T23:09:10.736Z,0.80
2023-02-19T23:11:21.092Z,1.10
2023-02-19T23:13:24.333Z,0.80
2023-02-19T23:15:29.147Z,1.35
2023-02-19T23:17:32.599Z,2.13
2023-02-19T23:19:36.773Z,2.40
2023-02-19T23:21:40.657Z,3.33
2023-02-19T23:23:44.990Z,0.80
2023-02-19T23:25:48.281Z,0.70
2023-02-19T23:27:52.911Z,0.60
2023-02-19T23:29:56.402Z,0.80
2023-02-19T23:32:01.538Z,0.80
2023-02-19T23:34:05.105Z,5.50
2023-02-19T23:36:09.881Z,0.80
2023-02-19T23:38:13.462Z,3.15
2023-02-19T23:40:16.949Z,0.97
2023-02-19T23:42:20.186Z,0.70
2023-02-19T23:44:24.903Z,0.60
2023-02-19T23:46:28.383Z,0.80
2023-02-19T23:48:33.890Z,0.70
2023-02-19T23:50:37.206Z,1.00
2023-02-19T23:52:40.571Z,0.60
2023-02-19T23:54:44.006Z,2.65
2023-02-19T23:56:47.361Z,2.13
2023-02-19T23:58:50.744Z,4.72
